Pagrindinis puslapis
METAR-TAF:

METAR-TAF

Oro uostai :

Čiangmajus, Tailandas

platuma: 18-47N, ilguma: 098-59E, Aukštis: 312 m

Dabartinis oras

Ataskaita buvo paskelbta 16 minutes, ne 06:30 UTC
Vėjas 4 kt nuo kintamojo kryptimis
Temperatūra 35°C
Drėgmė 42%
Slėgis 1008 hPa
Matomumas 10 km arba daugiau
Išsisklaidę debesys ne aukštis 3500 ft

METAR: VTCC 300630Z VRB04KT 9999 SCT035 35/20 Q1008 NOSIG

Laikas: 13:46 (06:46 UTC)

Prognozė

Ataskaita buvo paskelbta 1 valandą ir 46 minutes, ne 05:00 UTC
Prognozė galioja nuo 30 metu 06 UTC su 31 metu 12 UTC
Vėjas 5 kt iš Pietų
Matomumas 10 km arba daugiau
Išsisklaidę debesys ne aukštis 3500 ft
Laikinai
nuo 30 metu 07 UTC su 30 metu 13 UTC
Vėjas 15 kt iš Pietų/Pietvakarių su gūsio iki 30 kt
Matomumas: 4000 m
Mažai debesys ne aukštis 1800 ft, Liūtiniai kamuoliniai debesys.
Su prošvaistėmis ne aukštis 2500 ft
perkūnija, lietus

TAF: VTCC 300500Z 3006/3112 18005KT 9999 SCT035 TEMPO 3007/3013 20015G30KT 4000 TSRA FEW018CB BKN025

Orai ataskaitas ir orų prognozės (METAR, TAF).

turimą stotys yra geltonos ir raudonos taškus žemėlapyje.

Perkelti pele per norėdami pamatyti stoties vardą.

Tada spustelėkite, norėdami matyti oro stebėjimo ir prognozės.

Norėdami pakeisti žemėlapį: spustelėkite ant žalios mygtukų su juodo kryžiaus žemyn,; žalią mygtuką su brūkšneliu, jei norite nutolinti; arba žalių rodyklių gretimoms žemėlapius.


METAR-TAF: